createdAt,value
2022-12-03T00:00:05.038Z,92.27
2022-12-03T00:02:34.065Z,91.35
2022-12-03T00:05:00.553Z,90.77
2022-12-03T00:07:27.009Z,91.55
2022-12-03T00:09:53.393Z,91.76
2022-12-03T00:12:19.818Z,90.80
2022-12-03T00:14:46.331Z,91.12
2022-12-03T00:17:12.794Z,91.09
2022-12-03T00:19:39.261Z,91.07
2022-12-03T00:22:05.704Z,90.47
2022-12-03T00:24:32.303Z,90.54
2022-12-03T00:26:58.772Z,90.41
2022-12-03T00:29:25.167Z,90.43
2022-12-03T00:31:51.560Z,90.63
2022-12-03T00:34:18.051Z,89.89
2022-12-03T00:36:44.525Z,91.12
2022-12-03T00:39:10.921Z,89.73
2022-12-03T00:41:37.358Z,90.52
2022-12-03T00:44:03.804Z,90.35
2022-12-03T00:46:30.239Z,89.57
2022-12-03T00:48:56.691Z,89.06
2022-12-03T00:51:23.086Z,88.60
2022-12-03T00:53:49.504Z,88.25
2022-12-03T00:56:16.087Z,88.22
2022-12-03T00:58:42.529Z,87.43
2022-12-03T01:01:08.921Z,88.63
2022-12-03T01:03:35.591Z,89.00
2022-12-03T01:06:02.059Z,88.28
2022-12-03T01:08:28.571Z,88.35
2022-12-03T01:10:54.949Z,89.43
2022-12-03T01:13:21.498Z,88.29
2022-12-03T01:15:47.990Z,88.10
2022-12-03T01:18:14.451Z,88.43
2022-12-03T01:20:40.901Z,87.71
2022-12-03T01:23:07.319Z,88.94
2022-12-03T01:25:33.813Z,88.23
2022-12-03T01:28:00.199Z,88.95
2022-12-03T01:30:26.642Z,88.33
2022-12-03T01:32:53.054Z,87.63
2022-12-03T01:35:19.688Z,87.33
2022-12-03T01:37:46.144Z,87.65
2022-12-03T01:40:18.655Z,86.58
2022-12-03T01:42:45.174Z,88.78
2022-12-03T01:45:21.514Z,87.81
2022-12-03T01:47:48.140Z,86.80
2022-12-03T01:50:27.413Z,86.91
2022-12-03T01:52:58.199Z,85.94
2022-12-03T01:55:26.539Z,86.47
2022-12-03T01:57:57.188Z,86.91
2022-12-03T02:00:26.921Z,86.78
2022-12-03T02:02:59.667Z,86.79
2022-12-03T02:05:31.306Z,86.85
2022-12-03T02:07:58.699Z,86.72
2022-12-03T02:10:37.760Z,88.03
2022-12-03T02:13:07.698Z,87.77
2022-12-03T02:15:35.769Z,88.06
2022-12-03T02:18:02.747Z,87.29
2022-12-03T02:20:33.024Z,85.88
2022-12-03T02:23:13.383Z,86.74
2022-12-03T02:25:39.903Z,87.52
2022-12-03T02:28:09.085Z,86.88
2022-12-03T02:30:36.388Z,86.83
2022-12-03T02:33:04.049Z,87.30
2022-12-03T02:35:34.863Z,87.53
2022-12-03T02:38:12.264Z,87.49
2022-12-03T02:40:39.519Z,87.68
2022-12-03T02:43:06.339Z,87.10
2022-12-03T02:45:39.519Z,86.30
2022-12-03T02:48:14.470Z,85.41
2022-12-03T02:50:46.068Z,86.29
2022-12-03T02:53:17.712Z,86.38
2022-12-03T02:55:44.954Z,87.31
2022-12-03T02:58:12.047Z,86.93
2022-12-03T03:00:39.204Z,85.83
2022-12-03T03:03:07.783Z,85.85
2022-12-03T03:05:36.473Z,85.67
2022-12-03T03:08:03.758Z,86.88
2022-12-03T03:10:31.874Z,87.39
2022-12-03T03:12:58.328Z,86.72
2022-12-03T03:15:25.483Z,86.13
2022-12-03T03:17:52.357Z,86.94
2022-12-03T03:20:19.174Z,87.49
2022-12-03T03:22:45.677Z,87.41
2022-12-03T03:25:16.759Z,88.07
2022-12-03T03:27:44.732Z,88.11
2022-12-03T03:30:12.217Z,87.94
2022-12-03T03:32:40.114Z,88.92
2022-12-03T03:35:08.442Z,88.74
2022-12-03T03:37:35.132Z,89.04
2022-12-03T03:40:02.033Z,88.78
2022-12-03T03:42:28.727Z,89.18
2022-12-03T03:44:55.444Z,88.84
2022-12-03T03:47:23.780Z,88.25
2022-12-03T03:49:50.846Z,88.75
2022-12-03T03:52:19.606Z,89.13
2022-12-03T03:54:47.032Z,89.47
2022-12-03T03:57:13.530Z,89.45
2022-12-03T03:59:40.037Z,90.01
2022-12-03T04:02:06.435Z,90.26
2022-12-03T04:04:36.591Z,89.68
2022-12-03T04:07:03.315Z,89.06
2022-12-03T04:09:29.860Z,89.27
2022-12-03T04:12:15.005Z,90.06
2022-12-03T04:14:41.389Z,89.31
2022-12-03T04:17:07.793Z,89.58
2022-12-03T04:19:34.146Z,89.33
2022-12-03T04:22:19.281Z,88.91
2022-12-03T04:24:45.783Z,88.63
2022-12-03T04:27:31.105Z,88.43
2022-12-03T04:29:57.476Z,89.22
2022-12-03T04:32:42.372Z,88.97
2022-12-03T04:35:28.129Z,89.58
2022-12-03T04:37:54.625Z,88.80
2022-12-03T04:40:39.548Z,88.75
2022-12-03T04:43:05.985Z,88.55
2022-12-03T04:45:32.626Z,90.18
2022-12-03T04:47:59.074Z,89.21
2022-12-03T04:50:25.518Z,88.15
2022-12-03T04:52:51.956Z,87.31
2022-12-03T04:55:18.428Z,87.54
2022-12-03T04:57:44.785Z,87.59
2022-12-03T05:00:11.857Z,87.51
2022-12-03T05:02:38.334Z,87.57
2022-12-03T05:05:05.090Z,87.31
2022-12-03T05:07:31.584Z,87.70
2022-12-03T05:09:57.992Z,87.79
2022-12-03T05:12:24.366Z,88.03
2022-12-03T05:14:50.907Z,88.45
2022-12-03T05:17:17.559Z,87.92
2022-12-03T05:20:02.614Z,87.09
2022-12-03T05:22:29.058Z,87.26
2022-12-03T05:24:55.986Z,87.32
2022-12-03T05:27:24.200Z,87.35
2022-12-03T05:29:51.054Z,87.27
2022-12-03T05:32:18.281Z,88.14
2022-12-03T05:34:44.684Z,87.85
2022-12-03T05:37:11.350Z,87.45
2022-12-03T05:39:38.205Z,87.14
2022-12-03T05:42:23.133Z,87.65
2022-12-03T05:44:49.504Z,87.59
2022-12-03T05:47:16.147Z,86.64
2022-12-03T05:49:42.635Z,87.23
2022-12-03T05:52:09.068Z,87.44
2022-12-03T05:54:35.489Z,86.97
2022-12-03T05:57:02.054Z,87.08
2022-12-03T05:59:28.455Z,88.12
2022-12-03T06:01:55.265Z,86.91
2022-12-03T06:04:21.782Z,87.17
2022-12-03T06:06:48.159Z,86.57
2022-12-03T06:09:14.642Z,86.37
2022-12-03T06:11:41.346Z,87.26
2022-12-03T06:14:08.126Z,86.55
2022-12-03T06:16:34.504Z,87.87
2022-12-03T06:19:01.050Z,88.03
2022-12-03T06:21:27.433Z,86.79
2022-12-03T06:23:53.861Z,87.00
2022-12-03T06:26:20.237Z,86.95
2022-12-03T06:28:49.069Z,87.00
2022-12-03T06:31:15.471Z,86.83
2022-12-03T06:33:42.069Z,87.35
2022-12-03T06:36:08.647Z,86.58
2022-12-03T06:38:35.026Z,86.88
2022-12-03T06:41:01.451Z,85.95
2022-12-03T06:43:27.883Z,86.33
2022-12-03T06:45:54.337Z,87.15
2022-12-03T06:48:20.854Z,87.07
2022-12-03T06:50:47.432Z,85.98
2022-12-03T06:53:13.949Z,86.09
2022-12-03T06:55:40.389Z,86.36
2022-12-03T06:58:06.770Z,85.74
2022-12-03T07:00:33.240Z,86.60
2022-12-03T07:02:59.725Z,86.13
2022-12-03T07:05:26.297Z,86.32
2022-12-03T07:07:55.445Z,86.04
2022-12-03T07:10:22.483Z,86.33
2022-12-03T07:12:48.907Z,85.73
2022-12-03T07:15:15.435Z,86.20
2022-12-03T07:17:41.948Z,87.49
2022-12-03T07:20:09.015Z,86.78
2022-12-03T07:22:35.544Z,85.73
2022-12-03T07:25:02.326Z,86.20
2022-12-03T07:27:28.804Z,86.77
2022-12-03T07:29:55.205Z,86.84
2022-12-03T07:32:21.608Z,87.18
2022-12-03T07:34:48.242Z,86.72
2022-12-03T07:37:18.661Z,86.56
2022-12-03T07:39:48.037Z,86.28
2022-12-03T07:42:14.548Z,85.81
2022-12-03T07:44:41.111Z,85.87
2022-12-03T07:47:07.595Z,86.40
2022-12-03T07:49:34.120Z,85.25
2022-12-03T07:52:00.600Z,85.83
2022-12-03T07:54:27.193Z,85.65
2022-12-03T07:56:59.600Z,85.34
2022-12-03T07:59:27.906Z,85.20
2022-12-03T08:01:54.506Z,86.15
2022-12-03T08:04:21.496Z,85.86
2022-12-03T08:06:48.498Z,85.91
2022-12-03T08:09:16.329Z,85.67
2022-12-03T08:11:48.410Z,86.44
2022-12-03T08:14:17.591Z,85.75
2022-12-03T08:16:45.957Z,85.46
2022-12-03T08:19:15.042Z,85.70
2022-12-03T08:21:42.619Z,85.59
2022-12-03T08:24:18.874Z,85.01
2022-12-03T08:26:46.828Z,85.17
2022-12-03T08:29:19.433Z,84.21
2022-12-03T08:31:57.109Z,85.37
2022-12-03T08:34:27.474Z,84.98
2022-12-03T08:37:05.916Z,85.75
2022-12-03T08:39:35.470Z,85.75
2022-12-03T08:42:26.832Z,85.07
2022-12-03T08:44:55.298Z,85.41
2022-12-03T08:47:24.153Z,85.79
2022-12-03T08:50:03.357Z,85.42
2022-12-03T08:52:34.625Z,84.97
2022-12-03T08:55:29.132Z,85.55
2022-12-03T08:57:55.500Z,85.36
2022-12-03T09:00:24.652Z,85.51
2022-12-03T09:02:59.528Z,84.87
2022-12-03T09:05:29.749Z,85.13
2022-12-03T09:07:56.338Z,85.74
2022-12-03T09:10:22.916Z,86.39
2022-12-03T09:12:49.689Z,85.91
2022-12-03T09:15:16.352Z,86.90
2022-12-03T09:17:42.791Z,86.08
2022-12-03T09:20:09.726Z,86.89
2022-12-03T09:22:36.298Z,86.65
2022-12-03T09:25:02.956Z,85.72
2022-12-03T09:27:29.368Z,85.21
2022-12-03T09:29:55.887Z,85.51
2022-12-03T09:32:22.472Z,85.71
2022-12-03T09:34:48.921Z,85.96
2022-12-03T09:37:15.464Z,85.36
2022-12-03T09:39:42.061Z,86.02
2022-12-03T09:42:09.549Z,86.07
2022-12-03T09:44:36.556Z,85.36
2022-12-03T09:47:04.693Z,86.00
2022-12-03T09:49:33.491Z,85.83
2022-12-03T09:52:02.779Z,84.69
2022-12-03T09:54:30.296Z,84.51
2022-12-03T09:56:59.304Z,85.04
2022-12-03T09:59:29.762Z,85.00
2022-12-03T10:01:56.547Z,86.28
2022-12-03T10:04:24.152Z,86.44
2022-12-03T10:06:51.317Z,86.07
2022-12-03T10:09:24.552Z,85.92
2022-12-03T10:11:51.159Z,85.60
2022-12-03T10:14:19.557Z,85.52
2022-12-03T10:16:46.534Z,85.10
2022-12-03T10:19:21.695Z,84.53
2022-12-03T10:21:48.206Z,85.17
2022-12-03T10:24:29.205Z,85.91
2022-12-03T10:26:58.173Z,85.04
2022-12-03T10:29:34.707Z,85.64
2022-12-03T10:32:07.877Z,84.60
2022-12-03T10:34:44.675Z,84.64
2022-12-03T10:37:19.794Z,84.92
2022-12-03T10:39:56.058Z,85.29
2022-12-03T10:42:24.177Z,85.90
2022-12-03T10:45:07.753Z,85.91
2022-12-03T10:47:34.438Z,85.57
2022-12-03T10:50:03.973Z,84.77
2022-12-03T10:52:30.745Z,84.49
2022-12-03T10:54:57.362Z,84.39
2022-12-03T10:57:24.499Z,83.81
2022-12-03T10:59:51.061Z,85.11
2022-12-03T11:02:23.825Z,84.50
2022-12-03T11:04:51.760Z,84.55
2022-12-03T11:07:20.565Z,83.73
2022-12-03T11:09:49.626Z,84.57
2022-12-03T11:12:25.611Z,83.06
2022-12-03T11:14:53.323Z,83.66
2022-12-03T11:17:46.487Z,84.51
2022-12-03T11:20:24.905Z,84.98
2022-12-03T11:22:52.857Z,84.71
2022-12-03T11:25:25.390Z,84.95
2022-12-03T11:28:10.229Z,83.97
2022-12-03T11:30:48.923Z,84.48
2022-12-03T11:33:24.747Z,84.33
2022-12-03T11:36:03.103Z,84.51
2022-12-03T11:38:38.410Z,84.71
2022-12-03T11:41:07.919Z,83.52
2022-12-03T11:43:52.643Z,83.81
2022-12-03T11:46:21.325Z,83.17
2022-12-03T11:48:50.587Z,84.08
2022-12-03T11:51:21.276Z,84.87
2022-12-03T11:53:49.422Z,83.99
2022-12-03T11:56:19.201Z,84.84
2022-12-03T11:58:47.298Z,84.19
2022-12-03T12:01:15.972Z,84.99
2022-12-03T12:03:47.798Z,85.27
2022-12-03T12:06:16.465Z,85.26
2022-12-03T12:08:51.787Z,84.81
2022-12-03T12:11:33.476Z,84.16
2022-12-03T12:14:26.442Z,84.43
2022-12-03T12:16:55.156Z,84.43
2022-12-03T12:19:42.970Z,84.49
2022-12-03T12:22:24.110Z,84.28
2022-12-03T12:24:52.876Z,85.01
2022-12-03T12:27:19.441Z,84.34
2022-12-03T12:29:52.619Z,84.91
2022-12-03T12:32:24.112Z,84.09
2022-12-03T12:34:53.817Z,84.92
2022-12-03T12:37:32.714Z,85.00
2022-12-03T12:40:01.445Z,84.64
2022-12-03T12:42:42.653Z,85.17
2022-12-03T12:45:16.252Z,84.90
2022-12-03T12:48:05.773Z,85.26
2022-12-03T12:50:35.138Z,85.58
2022-12-03T12:53:25.884Z,84.94
2022-12-03T12:55:58.051Z,85.28
2022-12-03T12:58:25.757Z,84.56
2022-12-03T13:00:54.837Z,83.53
2022-12-03T13:03:25.416Z,83.74
2022-12-03T13:05:53.365Z,84.82
2022-12-03T13:08:42.731Z,84.19
2022-12-03T13:11:36.960Z,84.24
2022-12-03T13:14:18.213Z,85.12
2022-12-03T13:16:46.970Z,85.39
2022-12-03T13:19:19.044Z,84.57
2022-12-03T13:21:46.187Z,84.47
2022-12-03T13:24:24.933Z,84.75
2022-12-03T13:26:51.685Z,84.81
2022-12-03T13:29:20.363Z,85.31
2022-12-03T13:31:52.762Z,84.97
2022-12-03T13:34:25.831Z,84.69
2022-12-03T13:36:58.147Z,85.03
2022-12-03T13:39:37.777Z,84.80
2022-12-03T13:42:46.494Z,85.55
2022-12-03T13:45:16.028Z,86.02
2022-12-03T13:47:50.276Z,86.57
2022-12-03T13:50:39.383Z,86.26
2022-12-03T13:53:32.825Z,85.78
2022-12-03T13:56:33.651Z,86.69
2022-12-03T13:59:01.270Z,86.46
2022-12-03T14:01:28.182Z,86.22
2022-12-03T14:03:54.709Z,85.62
2022-12-03T14:06:21.218Z,85.44
2022-12-03T14:08:47.790Z,85.50
2022-12-03T14:11:34.162Z,85.34
2022-12-03T14:14:01.059Z,85.64
2022-12-03T14:16:27.582Z,86.07
2022-12-03T14:18:54.144Z,87.07
2022-12-03T14:21:20.553Z,87.51
2022-12-03T14:23:47.065Z,87.59
2022-12-03T14:26:13.530Z,86.71
2022-12-03T14:28:39.950Z,86.39
2022-12-03T14:31:06.407Z,86.28
2022-12-03T14:33:33.031Z,86.65
2022-12-03T14:35:59.568Z,86.76
2022-12-03T14:38:26.061Z,87.33
2022-12-03T14:40:52.494Z,86.96
2022-12-03T14:43:18.926Z,86.96
2022-12-03T14:45:45.382Z,87.53
2022-12-03T14:48:11.849Z,86.80
2022-12-03T14:50:38.256Z,86.35
2022-12-03T14:53:04.642Z,86.80
2022-12-03T14:55:31.077Z,87.52
2022-12-03T14:57:57.468Z,87.73
2022-12-03T15:00:23.934Z,87.33
2022-12-03T15:02:50.479Z,87.27
2022-12-03T15:05:18.598Z,87.50
2022-12-03T15:07:46.599Z,86.90
2022-12-03T15:10:13.127Z,87.49
2022-12-03T15:12:39.580Z,86.90
2022-12-03T15:15:06.612Z,86.93
2022-12-03T15:17:33.175Z,86.99
2022-12-03T15:19:59.727Z,86.34
2022-12-03T15:22:26.325Z,86.89
2022-12-03T15:24:52.748Z,86.74
2022-12-03T15:27:19.292Z,87.23
2022-12-03T15:29:45.718Z,86.92
2022-12-03T15:32:12.177Z,86.25
2022-12-03T15:34:38.597Z,86.55
2022-12-03T15:37:05.095Z,85.67
2022-12-03T15:39:32.968Z,86.41
2022-12-03T15:41:59.411Z,87.66
2022-12-03T15:44:25.874Z,87.33
2022-12-03T15:46:52.328Z,87.05
2022-12-03T15:49:18.976Z,86.75
2022-12-03T15:51:45.361Z,86.88
2022-12-03T15:54:12.425Z,86.82
2022-12-03T15:56:39.043Z,86.44
2022-12-03T15:59:05.471Z,85.95
2022-12-03T16:01:32.135Z,86.42
2022-12-03T16:03:58.775Z,86.50
2022-12-03T16:06:25.220Z,86.95
2022-12-03T16:08:51.606Z,87.52
2022-12-03T16:11:18.086Z,87.38
2022-12-03T16:13:44.670Z,87.34
2022-12-03T16:16:11.273Z,87.26
2022-12-03T16:18:37.740Z,87.02
2022-12-03T16:21:04.286Z,87.16
2022-12-03T16:23:30.736Z,87.74
2022-12-03T16:25:57.139Z,87.67
2022-12-03T16:28:23.573Z,87.07
2022-12-03T16:30:50.094Z,87.03
2022-12-03T16:33:16.602Z,87.26
2022-12-03T16:35:43.019Z,86.73
2022-12-03T16:38:09.441Z,87.23
2022-12-03T16:40:35.876Z,87.38
2022-12-03T16:43:04.198Z,87.77
2022-12-03T16:45:50.847Z,88.21
2022-12-03T16:48:18.402Z,87.31
2022-12-03T16:50:44.821Z,87.16
2022-12-03T16:53:11.872Z,87.06
2022-12-03T16:55:38.238Z,86.75
2022-12-03T16:58:04.629Z,86.36
2022-12-03T17:00:31.080Z,86.31
2022-12-03T17:02:57.636Z,88.20
2022-12-03T17:05:24.146Z,88.17
2022-12-03T17:07:50.692Z,87.33
2022-12-03T17:10:17.292Z,87.40
2022-12-03T17:13:08.087Z,88.11
2022-12-03T17:15:30.641Z,87.45
2022-12-03T17:17:57.512Z,87.65
2022-12-03T17:20:24.416Z,87.52
2022-12-03T17:22:50.927Z,88.00
2022-12-03T17:25:17.641Z,87.42
2022-12-03T17:27:45.495Z,87.79
2022-12-03T17:30:12.860Z,88.10
2022-12-03T17:32:39.423Z,87.80
2022-12-03T17:35:06.398Z,87.23
2022-12-03T17:37:32.901Z,87.53
2022-12-03T17:39:59.448Z,87.11
2022-12-03T17:42:26.082Z,86.79
2022-12-03T17:44:52.581Z,86.83
2022-12-03T17:47:19.033Z,85.91
2022-12-03T17:49:45.517Z,85.76
2022-12-03T17:52:12.008Z,87.21
2022-12-03T17:55:08.595Z,86.29
2022-12-03T17:57:25.385Z,86.55
2022-12-03T17:59:52.550Z,86.40
2022-12-03T18:02:19.258Z,87.54
2022-12-03T18:04:45.715Z,88.01
2022-12-03T18:07:12.104Z,88.16
2022-12-03T18:09:38.560Z,88.09
2022-12-03T18:12:05.183Z,87.50
2022-12-03T18:14:31.636Z,86.78
2022-12-03T18:16:58.047Z,87.28
2022-12-03T18:19:24.470Z,87.89
2022-12-03T18:21:50.943Z,87.54
2022-12-03T18:24:17.626Z,87.01
2022-12-03T18:26:44.145Z,88.20
2022-12-03T18:29:10.576Z,87.62
2022-12-03T18:31:37.039Z,87.76
2022-12-03T18:34:03.478Z,87.70
2022-12-03T18:36:35.099Z,87.10
2022-12-03T18:39:04.447Z,87.10
2022-12-03T18:41:30.922Z,87.37
2022-12-03T18:43:57.404Z,87.70
2022-12-03T18:49:10.760Z,87.74
2022-12-03T18:51:37.670Z,88.33
2022-12-03T18:54:04.556Z,87.61
2022-12-03T18:56:30.977Z,87.71
2022-12-03T18:58:57.465Z,87.28
2022-12-03T19:01:24.075Z,87.23
2022-12-03T19:03:50.640Z,87.16
2022-12-03T19:06:19.844Z,87.65
2022-12-03T19:08:48.292Z,87.81
2022-12-03T19:11:15.300Z,88.19
2022-12-03T19:13:42.507Z,87.94
2022-12-03T19:16:10.499Z,87.17
2022-12-03T19:18:36.996Z,86.97
2022-12-03T19:21:12.333Z,87.06
2022-12-03T19:23:39.512Z,86.87
2022-12-03T19:26:09.527Z,88.11
2022-12-03T19:28:36.337Z,88.27
2022-12-03T19:31:13.628Z,87.54
2022-12-03T19:33:40.399Z,87.15
2022-12-03T19:36:07.706Z,87.33
2022-12-03T19:38:34.704Z,87.87
2022-12-03T19:41:04.153Z,87.71
2022-12-03T19:43:32.413Z,88.27
2022-12-03T19:46:06.810Z,87.68
2022-12-03T19:48:34.649Z,87.46
2022-12-03T19:51:26.530Z,87.27
2022-12-03T19:53:48.894Z,88.44
2022-12-03T19:56:17.868Z,88.21
2022-12-03T19:58:45.565Z,88.61
2022-12-03T20:01:18.025Z,89.02
2022-12-03T20:03:49.757Z,88.09
2022-12-03T20:06:18.263Z,88.33
2022-12-03T20:08:45.548Z,88.00
2022-12-03T20:11:12.059Z,87.94
2022-12-03T20:13:39.118Z,87.89
2022-12-03T20:16:07.368Z,87.69
2022-12-03T20:18:34.094Z,87.64
2022-12-03T20:21:01.386Z,88.65
2022-12-03T20:23:28.245Z,87.81
2022-12-03T20:25:54.939Z,88.36
2022-12-03T20:28:21.405Z,88.43
2022-12-03T20:31:09.590Z,88.08
2022-12-03T20:33:36.855Z,88.81
2022-12-03T20:36:03.781Z,89.66
2022-12-03T20:38:31.906Z,89.28
2022-12-03T20:41:02.339Z,88.05
2022-12-03T20:43:29.196Z,87.81
2022-12-03T20:46:01.041Z,87.82
2022-12-03T20:48:29.072Z,88.25
2022-12-03T20:50:55.562Z,88.77
2022-12-03T20:53:25.625Z,88.00
2022-12-03T20:55:56.436Z,88.40
2022-12-03T20:58:22.989Z,88.57
2022-12-03T21:00:49.633Z,88.59
2022-12-03T21:03:16.267Z,88.41
2022-12-03T21:05:43.869Z,88.02
2022-12-03T21:08:10.950Z,88.71
2022-12-03T21:10:47.605Z,88.82
2022-12-03T21:13:15.861Z,88.97
2022-12-03T21:15:43.402Z,88.80
2022-12-03T21:18:12.030Z,88.88
2022-12-03T21:20:44.896Z,88.00
2022-12-03T21:23:11.927Z,88.17
2022-12-03T21:25:38.488Z,88.97
2022-12-03T21:28:07.316Z,88.96
2022-12-03T21:30:36.518Z,89.14
2022-12-03T21:33:03.383Z,88.61
2022-12-03T21:35:30.201Z,89.60
2022-12-03T21:37:56.663Z,88.64
2022-12-03T21:40:23.216Z,87.98
2022-12-03T21:42:49.654Z,88.28
2022-12-03T21:45:16.394Z,88.66
2022-12-03T21:47:46.554Z,89.15
2022-12-03T21:50:13.125Z,89.07
2022-12-03T21:52:39.657Z,89.06
2022-12-03T21:55:06.389Z,88.35
2022-12-03T21:57:35.978Z,88.48
2022-12-03T22:00:07.773Z,88.48
2022-12-03T22:02:34.718Z,87.95
2022-12-03T22:05:01.235Z,87.87
2022-12-03T22:07:27.787Z,87.39
2022-12-03T22:09:54.426Z,87.82
2022-12-03T22:12:21.118Z,87.62
2022-12-03T22:14:47.587Z,88.31
2022-12-03T22:17:14.019Z,88.79
2022-12-03T22:19:40.465Z,88.94
2022-12-03T22:22:06.908Z,88.25
2022-12-03T22:24:33.535Z,87.46
2022-12-03T22:26:59.964Z,87.09
2022-12-03T22:29:26.376Z,87.18
2022-12-03T22:31:52.748Z,87.69
2022-12-03T22:34:19.119Z,86.99
2022-12-03T22:36:45.550Z,86.73
2022-12-03T22:39:11.951Z,87.85
2022-12-03T22:41:39.137Z,88.01
2022-12-03T22:44:05.671Z,87.51
2022-12-03T22:46:32.107Z,86.99
2022-12-03T22:49:03.480Z,87.01
2022-12-03T22:51:33.465Z,87.64
2022-12-03T22:54:01.676Z,86.84
2022-12-03T22:56:29.705Z,87.35
2022-12-03T22:58:56.333Z,87.84
2022-12-03T23:01:24.394Z,88.24
2022-12-03T23:03:51.082Z,87.44
2022-12-03T23:06:18.621Z,87.71
2022-12-03T23:08:45.062Z,87.58
2022-12-03T23:11:11.934Z,87.13
2022-12-03T23:13:38.646Z,87.45
2022-12-03T23:16:05.446Z,87.82
2022-12-03T23:18:32.422Z,88.11
2022-12-03T23:20:59.087Z,87.83
2022-12-03T23:23:27.357Z,86.67
2022-12-03T23:26:00.832Z,87.43
2022-12-03T23:28:28.900Z,87.97
2022-12-03T23:30:55.936Z,88.34
2022-12-03T23:33:23.304Z,88.26
2022-12-03T23:35:49.732Z,88.21
2022-12-03T23:38:17.515Z,88.64
2022-12-03T23:40:48.076Z,88.96
2022-12-03T23:43:15.152Z,88.14
2022-12-03T23:45:41.618Z,87.62
2022-12-03T23:48:08.086Z,87.29
2022-12-03T23:50:34.928Z,87.31
2022-12-03T23:53:01.311Z,87.25
2022-12-03T23:55:27.732Z,87.55
2022-12-03T23:57:54.152Z,86.74
